createdAt,value
2023-03-10T05:17:55.099Z,4.65
2023-03-10T05:19:00.959Z,4.93
2023-03-10T05:20:11.370Z,4.97
2023-03-10T05:21:26.690Z,4.78
2023-03-10T05:22:36.890Z,5.38
2023-03-10T05:26:43.022Z,4.53
2023-03-10T05:27:53.024Z,4.25
2023-03-10T05:29:09.418Z,4.82
2023-03-10T05:30:23.247Z,4.28
2023-03-10T05:31:57.235Z,4.63
2023-03-10T05:33:15.636Z,4.72
2023-03-10T05:34:30.946Z,5.00
2023-03-10T06:27:29.334Z,6.47
2023-03-10T06:30:12.468Z,7.93
2023-03-10T06:31:45.124Z,8.00
2023-03-10T07:23:25.716Z,7.47
2023-03-10T07:24:34.506Z,7.30
2023-03-10T07:25:42.707Z,7.35
2023-03-10T07:26:47.210Z,8.32
2023-03-10T07:28:05.125Z,7.90
2023-03-10T07:29:12.967Z,7.90
2023-03-10T07:31:50.926Z,7.88
2023-03-10T07:32:58.350Z,8.43
2023-03-10T07:34:06.098Z,7.60
2023-03-10T07:35:09.661Z,7.95
2023-03-10T07:36:17.550Z,8.57
2023-03-10T07:37:27.710Z,7.90
2023-03-10T07:38:33.738Z,8.15
2023-03-10T07:39:40.344Z,9.10
2023-03-10T07:40:47.798Z,8.68
2023-03-10T07:41:52.223Z,8.05
2023-03-10T07:42:59.654Z,8.45
2023-03-10T07:44:11.044Z,7.60
2023-03-10T07:46:34.552Z,7.60
2023-03-10T07:47:40.611Z,10.23
2023-03-10T07:48:48.471Z,7.80
2023-03-10T07:49:55.534Z,7.68
2023-03-10T07:51:06.657Z,7.93
2023-03-10T07:52:11.017Z,7.00
2023-03-10T07:53:17.923Z,8.52
2023-03-10T07:54:22.981Z,7.63
2023-03-10T07:56:55.260Z,7.97
2023-03-10T07:58:04.900Z,8.20
2023-03-10T08:00:35.364Z,7.80
2023-03-10T08:01:40.343Z,7.82
2023-03-10T08:02:44.794Z,6.47
2023-03-10T08:03:51.494Z,6.20
2023-03-10T08:04:55.417Z,15.02
2023-03-10T08:06:12.122Z,7.47
2023-03-10T08:07:16.373Z,6.75
2023-03-10T08:08:22.945Z,7.22
2023-03-10T08:10:36.149Z,6.90
2023-03-10T08:11:39.570Z,7.15
2023-03-10T08:12:44.321Z,7.75
2023-03-10T08:13:48.872Z,6.78
2023-03-10T08:15:00.044Z,6.90
2023-03-10T08:16:07.672Z,6.80
2023-03-10T08:17:20.081Z,5.47
2023-03-10T08:18:28.682Z,6.03
2023-03-10T08:19:37.897Z,5.97
2023-03-10T08:21:48.548Z,5.72
2023-03-10T08:22:57.872Z,6.13
2023-03-10T08:24:04.472Z,6.55
2023-03-10T08:25:13.119Z,6.40
2023-03-10T08:26:29.875Z,6.43
2023-03-10T08:27:40.094Z,5.93
2023-03-10T08:28:46.502Z,5.88
2023-03-10T08:29:50.383Z,6.57
2023-03-10T08:31:04.130Z,6.50
2023-03-10T08:32:11.509Z,6.10
2023-03-10T08:33:18.748Z,6.32
2023-03-10T08:34:32.321Z,6.65
2023-03-10T08:35:40.548Z,6.38
2023-03-10T08:36:45.314Z,6.38
2023-03-10T08:37:48.395Z,5.78
2023-03-10T08:38:56.096Z,5.80
2023-03-10T08:40:02.729Z,5.30
2023-03-10T08:41:23.724Z,5.03
2023-03-10T08:42:28.146Z,4.70
2023-03-10T08:43:39.305Z,5.82
2023-03-10T08:44:46.519Z,5.47
2023-03-10T08:45:50.643Z,5.50
2023-03-10T08:46:56.332Z,5.78
2023-03-10T08:47:59.126Z,5.90
2023-03-10T08:49:05.733Z,6.00
2023-03-10T08:50:08.949Z,5.80
2023-03-10T08:51:17.534Z,6.60
2023-03-10T08:52:21.590Z,6.63
2023-03-10T08:53:27.206Z,6.68
2023-03-10T08:54:40.651Z,7.20
2023-03-10T08:55:43.218Z,7.00
2023-03-10T08:56:54.431Z,6.18
2023-03-10T08:59:07.774Z,5.93
2023-03-10T09:00:17.276Z,6.50
2023-03-10T09:01:25.094Z,6.00
2023-03-10T09:02:30.042Z,6.22
2023-03-10T09:03:38.753Z,6.35
2023-03-10T09:04:42.755Z,5.35
2023-03-10T09:05:46.115Z,5.80
2023-03-10T09:06:53.443Z,5.75
2023-03-10T09:07:58.391Z,5.20
2023-03-10T09:09:01.815Z,6.10
2023-03-10T09:11:43.969Z,5.93
2023-03-10T09:13:03.953Z,6.47
2023-03-10T09:14:18.955Z,6.43
2023-03-10T09:15:24.692Z,6.43
2023-03-10T09:16:31.141Z,6.35
2023-03-10T09:17:41.011Z,6.55
2023-03-10T09:18:46.136Z,7.03
2023-03-10T09:19:50.570Z,6.05
2023-03-10T09:20:53.768Z,6.57
2023-03-10T09:21:57.933Z,6.30
2023-03-10T09:23:06.844Z,7.20
2023-03-10T09:24:09.858Z,7.22
2023-03-10T09:25:13.488Z,6.18
2023-03-10T09:26:22.664Z,7.00
2023-03-10T09:27:26.575Z,6.65
2023-03-10T09:28:29.096Z,7.22
2023-03-10T09:29:43.111Z,7.07
2023-03-10T09:30:48.903Z,8.48
2023-03-10T09:31:51.477Z,6.90
2023-03-10T09:33:08.450Z,6.75
2023-03-10T09:34:20.512Z,6.85
2023-03-10T09:35:27.072Z,5.72
2023-03-10T09:36:30.212Z,6.65
2023-03-10T09:37:34.597Z,6.57
2023-03-10T09:38:39.389Z,6.70
2023-03-10T09:39:45.039Z,6.10
2023-03-10T09:41:06.726Z,5.95
2023-03-10T09:42:38.914Z,6.60
2023-03-10T09:43:50.853Z,6.43
2023-03-10T09:45:20.803Z,6.47
2023-03-10T09:46:40.545Z,6.80
2023-03-10T09:48:05.756Z,6.57
2023-03-10T09:49:51.777Z,6.53
2023-03-10T09:50:57.120Z,6.50
2023-03-10T09:52:25.099Z,6.32
2023-03-10T09:53:54.448Z,7.53
2023-03-10T09:55:07.936Z,6.75
2023-03-10T09:56:16.181Z,7.13
2023-03-10T09:57:24.652Z,6.75
2023-03-10T09:58:30.554Z,6.80
2023-03-10T09:59:38.027Z,6.68
2023-03-10T10:00:45.501Z,6.50
2023-03-10T10:01:52.609Z,6.43
2023-03-10T10:03:12.817Z,6.90
2023-03-10T10:04:39.752Z,6.93
2023-03-10T10:05:51.230Z,7.25
2023-03-10T10:06:57.676Z,6.53
2023-03-10T10:08:06.237Z,7.53
2023-03-10T10:09:33.040Z,7.78
2023-03-10T10:10:39.306Z,6.97
2023-03-10T10:11:44.523Z,7.18
2023-03-10T10:12:55.708Z,7.63
2023-03-10T10:14:29.221Z,7.15
2023-03-10T10:15:40.019Z,7.50
2023-03-10T10:17:07.573Z,7.40
2023-03-10T10:18:56.416Z,6.68
2023-03-10T10:19:59.867Z,6.72
2023-03-10T10:21:13.805Z,6.93
2023-03-10T10:22:47.522Z,7.13
2023-03-10T10:24:06.772Z,6.30
2023-03-10T10:25:15.773Z,6.35
2023-03-10T10:26:25.116Z,6.60
2023-03-10T10:27:32.256Z,7.82
2023-03-10T10:28:50.946Z,8.27
2023-03-10T10:29:58.806Z,6.70
2023-03-10T10:31:14.424Z,7.25
2023-03-10T10:32:19.945Z,7.05
2023-03-10T10:33:22.992Z,6.93
2023-03-10T10:34:28.847Z,6.60
2023-03-10T10:35:42.235Z,7.10
2023-03-10T10:36:58.700Z,6.72
2023-03-10T10:38:04.358Z,6.40
2023-03-10T10:39:33.492Z,6.13
2023-03-10T10:41:19.096Z,6.38
2023-03-10T10:42:28.731Z,7.25
2023-03-10T10:43:41.877Z,6.60
2023-03-10T10:44:47.211Z,6.30
2023-03-10T10:47:30.833Z,7.00
2023-03-10T10:48:46.743Z,7.10
2023-03-10T10:49:50.068Z,6.20
2023-03-10T10:50:55.979Z,7.30
2023-03-10T10:52:19.061Z,6.53
2023-03-10T10:53:27.035Z,6.72
2023-03-10T10:54:41.802Z,7.10
2023-03-10T10:55:46.463Z,7.03
2023-03-10T10:56:59.584Z,6.80
2023-03-10T10:58:06.907Z,7.70
2023-03-10T10:59:25.735Z,7.07
2023-03-10T11:00:32.752Z,7.30
2023-03-10T11:01:59.618Z,8.30
2023-03-10T11:03:20.924Z,6.70
2023-03-10T11:04:26.233Z,6.43
2023-03-10T11:05:39.087Z,6.93
2023-03-10T11:06:44.986Z,6.90
2023-03-10T11:07:47.892Z,7.25
2023-03-10T11:08:53.147Z,7.45
2023-03-10T11:10:00.562Z,7.50
2023-03-10T11:11:06.667Z,7.55
2023-03-10T11:12:34.925Z,6.30
2023-03-10T11:13:56.307Z,6.28
2023-03-10T11:15:30.365Z,6.43
2023-03-10T11:17:30.396Z,6.97
2023-03-10T11:18:43.815Z,6.93
2023-03-10T11:19:56.264Z,6.88
2023-03-10T11:21:08.412Z,7.25
2023-03-10T11:22:33.714Z,6.60
2023-03-10T11:24:00.150Z,6.78
2023-03-10T11:25:11.217Z,6.88
2023-03-10T11:26:33.294Z,6.68
2023-03-10T11:27:49.329Z,6.47
2023-03-10T11:29:30.066Z,6.25
2023-03-10T11:30:47.220Z,6.95
2023-03-10T11:32:19.377Z,6.40
2023-03-10T11:33:37.961Z,6.07
2023-03-10T11:34:51.234Z,6.70
2023-03-10T11:36:28.396Z,6.75
2023-03-10T11:37:43.770Z,7.72
2023-03-10T11:38:51.896Z,6.10
2023-03-10T11:40:08.022Z,6.88
2023-03-10T11:41:44.537Z,7.15
2023-03-10T11:43:07.086Z,7.22
2023-03-10T11:44:38.937Z,6.97
2023-03-10T11:45:55.394Z,7.05
2023-03-10T11:47:23.949Z,7.05
2023-03-10T11:48:44.535Z,8.65
2023-03-10T11:51:45.023Z,6.47
2023-03-10T11:52:59.391Z,7.28
2023-03-10T11:54:20.292Z,7.20
2023-03-10T11:55:23.074Z,7.95
2023-03-10T11:56:28.269Z,7.45
2023-03-10T11:57:44.056Z,7.18
2023-03-10T11:59:00.479Z,7.88
2023-03-10T12:00:15.689Z,7.03
2023-03-10T12:01:33.236Z,7.10
2023-03-10T12:03:13.782Z,7.30
2023-03-10T12:04:25.705Z,7.00
2023-03-10T12:05:43.115Z,7.78
2023-03-10T12:06:58.820Z,8.73
2023-03-10T12:08:37.720Z,8.98
2023-03-10T12:10:12.377Z,8.00
2023-03-10T12:12:04.578Z,6.72
2023-03-10T12:13:50.690Z,6.93
2023-03-10T12:14:57.393Z,7.00
2023-03-10T12:16:01.484Z,7.07
2023-03-10T12:20:15.124Z,6.68
2023-03-10T12:21:21.655Z,6.68
2023-03-10T12:24:48.449Z,7.22
2023-03-10T12:25:54.400Z,5.88
2023-03-10T12:27:05.668Z,6.57
2023-03-10T12:28:24.793Z,6.38
2023-03-10T12:29:35.658Z,5.72
2023-03-10T12:31:10.768Z,7.25
2023-03-10T12:32:42.205Z,6.97
2023-03-10T12:33:47.972Z,6.53
2023-03-10T12:35:33.125Z,8.00
2023-03-10T12:36:50.196Z,6.47
2023-03-10T12:38:43.558Z,8.38
2023-03-10T12:39:53.763Z,7.22
2023-03-10T12:41:43.482Z,6.13
2023-03-10T12:42:47.131Z,7.35
2023-03-10T12:43:49.034Z,6.75
2023-03-10T12:45:01.403Z,7.13
2023-03-10T12:46:16.290Z,6.85
2023-03-10T12:47:22.991Z,7.05
2023-03-10T12:48:26.736Z,6.65
2023-03-10T12:49:32.241Z,6.53
2023-03-10T12:50:53.658Z,6.55
2023-03-10T12:52:07.843Z,6.45
2023-03-10T12:53:34.728Z,7.15
2023-03-10T12:54:56.909Z,4.53
2023-03-10T12:56:13.993Z,6.30
2023-03-10T12:57:36.961Z,6.57
2023-03-10T12:58:43.488Z,5.35
2023-03-10T13:00:19.295Z,5.57
2023-03-10T13:01:25.771Z,4.95
2023-03-10T13:02:48.954Z,5.40
2023-03-10T13:03:56.612Z,5.18
2023-03-10T13:05:06.582Z,6.10
2023-03-10T13:06:14.458Z,5.78
2023-03-10T13:07:19.549Z,6.20
2023-03-10T13:08:44.385Z,6.25
2023-03-10T13:09:49.099Z,6.22
2023-03-10T13:10:56.787Z,10.02
2023-03-10T13:12:07.551Z,6.40
2023-03-10T13:13:16.810Z,5.95
2023-03-10T13:14:24.725Z,6.15
2023-03-10T13:15:31.454Z,5.55
2023-03-10T13:16:33.831Z,5.80
2023-03-10T13:17:36.043Z,6.00
2023-03-10T13:18:46.604Z,5.40
2023-03-10T13:20:05.815Z,6.38
2023-03-10T13:21:24.921Z,6.18
2023-03-10T13:22:27.773Z,6.47
2023-03-10T13:23:35.542Z,6.63
2023-03-10T13:24:41.782Z,6.00
2023-03-10T13:26:00.678Z,5.60
2023-03-10T13:27:08.969Z,6.35
2023-03-10T13:28:12.424Z,6.18
2023-03-10T13:29:20.624Z,5.85
2023-03-10T13:30:26.752Z,5.93
2023-03-10T13:31:33.814Z,5.65
2023-03-10T13:32:37.402Z,6.10
2023-03-10T13:33:52.366Z,6.25
2023-03-10T13:34:57.477Z,6.35
2023-03-10T13:35:59.781Z,6.10
2023-03-10T13:37:07.635Z,6.68
2023-03-10T13:38:17.866Z,6.22
2023-03-10T13:39:27.395Z,7.18
2023-03-10T13:40:37.040Z,6.10
2023-03-10T13:41:46.140Z,6.15
2023-03-10T13:42:48.347Z,5.95
2023-03-10T13:43:54.959Z,6.50
2023-03-10T13:44:57.046Z,7.15
2023-03-10T13:46:01.085Z,7.50
2023-03-10T13:47:12.788Z,7.13
2023-03-10T13:48:14.722Z,6.30
2023-03-10T13:49:18.316Z,6.53
2023-03-10T13:50:20.504Z,9.57
2023-03-10T13:51:25.071Z,6.32
2023-03-10T13:52:30.332Z,5.97
2023-03-10T13:53:34.856Z,5.78
2023-03-10T13:54:41.212Z,6.50
2023-03-10T13:55:43.177Z,5.72
2023-03-10T13:56:46.415Z,6.35
2023-03-10T13:57:49.280Z,6.32
2023-03-10T13:58:55.738Z,6.55
2023-03-10T13:59:59.691Z,5.93
2023-03-10T14:01:01.732Z,6.05
2023-03-10T14:02:05.351Z,5.78
2023-03-10T14:03:08.489Z,5.60
2023-03-10T14:04:16.782Z,6.60
2023-03-10T14:05:54.562Z,6.22
2023-03-10T14:07:18.613Z,7.30
2023-03-10T14:08:28.406Z,30.98
2023-03-10T14:09:31.005Z,6.40
2023-03-10T14:10:33.574Z,7.70
2023-03-10T14:11:44.764Z,5.97
2023-03-10T14:12:52.266Z,6.47
2023-03-10T14:13:54.440Z,6.55
2023-03-10T14:15:21.329Z,6.53
2023-03-10T14:16:57.084Z,7.20
2023-03-10T14:18:07.904Z,6.45
2023-03-10T14:19:10.724Z,6.25
2023-03-10T14:20:33.148Z,6.38
2023-03-10T14:21:58.434Z,6.57
2023-03-10T14:23:41.572Z,6.38
2023-03-10T14:24:44.878Z,5.72
2023-03-10T14:25:49.311Z,6.15
2023-03-10T14:26:51.718Z,6.60
2023-03-10T14:27:57.904Z,6.70
2023-03-10T14:29:12.932Z,6.00
2023-03-10T14:30:30.288Z,6.53
2023-03-10T14:31:32.732Z,5.90
2023-03-10T14:32:35.006Z,6.93
2023-03-10T14:33:37.242Z,6.75
2023-03-10T14:34:39.106Z,6.10
2023-03-10T14:35:41.882Z,6.75
2023-03-10T14:36:43.853Z,6.70
2023-03-10T14:37:46.839Z,5.70
2023-03-10T14:38:57.792Z,6.88
2023-03-10T14:39:59.859Z,6.28
2023-03-10T14:41:05.782Z,6.78
2023-03-10T14:42:19.807Z,6.15
2023-03-10T14:43:25.580Z,8.57
2023-03-10T14:44:28.608Z,6.85
2023-03-10T14:45:33.965Z,7.53
2023-03-10T14:46:36.177Z,8.10
2023-03-10T14:47:38.486Z,7.05
2023-03-10T14:48:42.132Z,7.97
2023-03-10T14:49:50.486Z,7.88
2023-03-10T14:50:54.679Z,7.68
2023-03-10T14:51:58.261Z,7.70
2023-03-10T14:53:02.971Z,8.07
2023-03-10T14:54:19.403Z,10.77
2023-03-10T14:55:25.009Z,8.05
2023-03-10T14:56:28.120Z,8.00
2023-03-10T14:57:30.534Z,8.40
2023-03-10T14:58:40.002Z,7.90
2023-03-10T14:59:42.057Z,8.07
2023-03-10T15:00:44.250Z,8.40
2023-03-10T15:01:46.288Z,7.45
2023-03-10T15:02:48.872Z,7.82
2023-03-10T15:03:50.985Z,8.93
2023-03-10T15:04:53.053Z,7.88
2023-03-10T15:05:55.123Z,7.00
2023-03-10T15:06:56.997Z,6.57
2023-03-10T15:07:58.873Z,6.70
2023-03-10T15:09:03.870Z,6.85
2023-03-10T15:10:14.407Z,6.63
2023-03-10T15:11:35.689Z,7.35
2023-03-10T15:12:40.872Z,6.90
2023-03-10T15:13:43.001Z,7.03
2023-03-10T15:14:52.449Z,6.75
2023-03-10T15:15:54.570Z,8.45
2023-03-10T15:16:56.644Z,7.32
2023-03-10T15:17:59.799Z,7.63
2023-03-10T15:19:01.665Z,7.10
2023-03-10T15:20:08.421Z,6.60
2023-03-10T15:21:10.580Z,7.22
2023-03-10T15:22:15.393Z,8.23
2023-03-10T15:23:24.880Z,7.35
2023-03-10T15:24:26.878Z,7.65
2023-03-10T15:25:29.029Z,7.57
2023-03-10T15:26:31.884Z,6.45
2023-03-10T15:27:33.898Z,6.57
2023-03-10T15:28:37.377Z,6.85
2023-03-10T15:29:39.493Z,7.68
2023-03-10T15:30:41.757Z,7.15
2023-03-10T15:31:43.963Z,7.20
2023-03-10T15:32:48.836Z,7.45
2023-03-10T15:33:50.810Z,7.15
2023-03-10T15:34:52.800Z,7.03
2023-03-10T15:35:55.205Z,6.90
2023-03-10T15:36:57.115Z,7.38
2023-03-10T15:37:59.342Z,6.57
2023-03-10T15:39:01.512Z,6.97
2023-03-10T15:40:04.457Z,6.95
2023-03-10T15:41:06.315Z,7.40
2023-03-10T15:42:08.382Z,6.68
2023-03-10T15:43:10.730Z,6.78
2023-03-10T15:44:12.630Z,6.75
2023-03-10T15:45:15.509Z,7.50
2023-03-10T15:46:17.934Z,7.18
2023-03-10T15:47:20.740Z,6.78
2023-03-10T15:48:22.702Z,7.25
2023-03-10T15:49:24.680Z,7.00
2023-03-10T15:50:27.958Z,7.75
2023-03-10T15:51:30.348Z,7.88
2023-03-10T15:52:32.337Z,7.32
2023-03-10T15:53:34.222Z,7.75
2023-03-10T15:54:36.151Z,6.97
2023-03-10T15:55:41.617Z,7.82
2023-03-10T15:56:43.570Z,7.53
2023-03-10T15:57:48.466Z,7.10
2023-03-10T15:58:50.515Z,7.30
2023-03-10T15:59:53.593Z,8.70
2023-03-10T16:00:55.586Z,8.23
2023-03-10T16:02:00.182Z,7.40
2023-03-10T16:03:02.377Z,7.22
2023-03-10T16:04:06.119Z,7.82
2023-03-10T16:05:08.707Z,8.20
2023-03-10T16:06:12.719Z,7.18
2023-03-10T16:07:15.644Z,6.80
2023-03-10T16:08:19.433Z,7.78
2023-03-10T16:09:21.537Z,8.02
2023-03-10T16:10:23.416Z,6.80
2023-03-10T16:11:26.172Z,7.68
2023-03-10T16:12:28.646Z,7.18
2023-03-10T16:13:31.268Z,7.45
2023-03-10T16:14:33.362Z,7.90
2023-03-10T16:15:38.395Z,6.47
2023-03-10T16:16:40.391Z,7.00
2023-03-10T16:17:43.886Z,6.40
2023-03-10T16:18:47.136Z,6.78
2023-03-10T16:19:49.164Z,6.95
2023-03-10T16:20:58.838Z,7.30
2023-03-10T16:22:00.851Z,7.32
2023-03-10T16:23:02.775Z,6.95
2023-03-10T16:24:04.840Z,6.80
2023-03-10T16:25:09.132Z,7.70
2023-03-10T16:26:17.241Z,7.85
2023-03-10T16:27:19.149Z,6.72
2023-03-10T16:28:21.056Z,7.55
2023-03-10T16:29:25.809Z,7.70
2023-03-10T16:30:29.259Z,7.82
2023-03-10T16:31:31.496Z,6.88
2023-03-10T16:32:34.110Z,6.82
2023-03-10T16:33:36.185Z,7.50
2023-03-10T16:34:38.164Z,7.80
2023-03-10T16:35:40.139Z,7.30
2023-03-10T16:36:42.255Z,7.20
2023-03-10T16:37:44.548Z,7.68
2023-03-10T16:38:46.972Z,7.80
2023-03-10T16:39:48.846Z,7.90
2023-03-10T16:40:51.595Z,7.68
2023-03-10T16:41:53.531Z,6.95
2023-03-10T16:42:55.466Z,8.25
2023-03-10T16:43:57.404Z,7.22
2023-03-10T16:44:59.605Z,7.88
2023-03-10T16:46:12.785Z,7.80
2023-03-10T16:47:17.836Z,7.20
2023-03-10T16:48:20.853Z,7.68
2023-03-10T16:49:22.752Z,7.63
2023-03-10T16:50:24.598Z,7.75
2023-03-10T16:51:39.010Z,7.40
2023-03-10T16:52:42.898Z,8.10
2023-03-10T16:53:45.406Z,8.50
2023-03-10T16:54:47.534Z,8.55
2023-03-10T16:55:49.558Z,6.40
2023-03-10T16:56:53.494Z,7.13
2023-03-10T16:57:56.754Z,6.75
2023-03-10T16:58:58.965Z,7.78
2023-03-10T17:00:00.916Z,8.13
2023-03-10T17:01:02.817Z,6.70
2023-03-10T17:02:05.106Z,7.07
2023-03-10T17:03:07.059Z,7.18
2023-03-10T17:04:08.944Z,7.40
2023-03-10T17:05:10.913Z,7.50
2023-03-10T17:06:16.861Z,7.38
2023-03-10T17:07:19.441Z,6.82
2023-03-10T17:08:22.302Z,9.18
2023-03-10T17:09:24.228Z,7.75
2023-03-10T17:10:27.012Z,7.90
2023-03-10T17:11:31.782Z,7.88
2023-03-10T17:12:34.656Z,7.68
2023-03-10T17:13:38.003Z,7.65
2023-03-10T17:14:40.102Z,7.60
2023-03-10T17:15:41.914Z,6.97
2023-03-10T17:16:45.360Z,6.47
2023-03-10T17:17:47.398Z,7.78
2023-03-10T17:18:50.827Z,7.50
2023-03-10T17:19:52.843Z,7.75
2023-03-10T17:20:54.825Z,7.38
2023-03-10T17:21:58.554Z,7.85
2023-03-10T17:23:00.596Z,8.90
2023-03-10T17:24:03.680Z,7.90
2023-03-10T17:25:06.210Z,8.10
2023-03-10T17:26:09.971Z,7.20
2023-03-10T17:27:11.896Z,7.25
2023-03-10T17:28:14.062Z,7.30
2023-03-10T17:29:16.900Z,8.52
2023-03-10T17:30:20.100Z,8.05
2023-03-10T17:31:28.621Z,8.00
2023-03-10T17:32:30.935Z,7.57
2023-03-10T17:33:32.912Z,8.20
2023-03-10T17:34:34.766Z,8.00
2023-03-10T17:35:38.789Z,7.70
2023-03-10T17:36:43.211Z,8.80
2023-03-10T17:37:47.037Z,9.05
2023-03-10T17:38:52.775Z,8.43
2023-03-10T17:39:54.652Z,8.90
2023-03-10T17:40:56.619Z,10.02
2023-03-10T17:41:58.644Z,10.35
2023-03-10T17:43:13.168Z,8.77
2023-03-10T17:44:23.290Z,9.68
2023-03-10T17:45:25.472Z,8.93
2023-03-10T17:46:29.860Z,9.27
2023-03-10T17:47:32.046Z,8.70
2023-03-10T17:48:34.740Z,9.05
2023-03-10T17:49:36.623Z,10.23
2023-03-10T17:50:38.839Z,10.25
2023-03-10T17:51:43.755Z,9.70
2023-03-10T17:52:47.697Z,8.88
2023-03-10T17:53:49.672Z,9.70
2023-03-10T17:54:51.796Z,11.20
2023-03-10T17:55:54.298Z,12.93
2023-03-10T17:56:56.248Z,13.15
2023-03-10T17:57:58.099Z,12.15
2023-03-10T17:59:00.058Z,9.88
2023-03-10T18:00:02.024Z,9.85
2023-03-10T18:01:17.316Z,10.02
2023-03-10T18:02:19.444Z,9.77
2023-03-10T18:03:22.289Z,10.52
2023-03-10T18:04:24.166Z,10.98
2023-03-10T18:05:26.168Z,12.65
2023-03-10T18:06:31.394Z,14.63
2023-03-10T18:07:33.961Z,13.30
2023-03-10T18:08:35.948Z,15.50
2023-03-10T18:09:38.883Z,12.18
2023-03-10T18:10:42.291Z,12.43
2023-03-10T18:11:45.826Z,11.82
2023-03-10T18:12:47.911Z,10.43
2023-03-10T18:13:49.908Z,11.07
2023-03-10T18:14:52.325Z,11.85
2023-03-10T18:15:54.332Z,11.93
2023-03-10T18:16:57.627Z,12.00
2023-03-10T18:18:01.229Z,10.95
2023-03-10T18:19:05.044Z,11.02
2023-03-10T18:20:10.335Z,11.70
2023-03-10T18:21:13.622Z,10.73
2023-03-10T18:22:15.459Z,11.00
2023-03-10T18:23:20.648Z,12.48
2023-03-10T18:24:22.628Z,11.80
2023-03-10T18:25:24.449Z,12.18
2023-03-10T18:26:30.560Z,10.75
2023-03-10T18:27:33.007Z,9.57
2023-03-10T18:28:35.675Z,9.63
2023-03-10T18:29:37.584Z,10.52
2023-03-10T18:30:44.807Z,9.45
2023-03-10T18:31:46.955Z,9.80
2023-03-10T18:32:49.223Z,10.05
2023-03-10T18:33:51.729Z,10.15
2023-03-10T18:34:54.531Z,10.32
2023-03-10T18:35:57.486Z,8.95
2023-03-10T18:37:00.222Z,7.90
2023-03-10T18:38:02.117Z,9.00
2023-03-10T18:39:07.397Z,8.77
2023-03-10T18:40:14.686Z,9.35
2023-03-10T18:41:24.305Z,8.50
2023-03-10T18:42:27.751Z,7.90
2023-03-10T18:43:32.238Z,7.95
2023-03-10T18:44:34.142Z,8.35
2023-03-10T18:45:39.442Z,8.77
2023-03-10T18:46:41.460Z,9.23
2023-03-10T18:47:45.804Z,8.98
2023-03-10T18:48:55.504Z,8.15
2023-03-10T18:49:58.756Z,7.65
2023-03-10T18:51:00.839Z,8.45
2023-03-10T18:52:02.876Z,8.07
2023-03-10T18:53:04.791Z,7.75
2023-03-10T18:54:07.071Z,7.53
2023-03-10T18:55:11.639Z,8.27
2023-03-10T18:56:14.086Z,7.97
2023-03-10T18:57:16.440Z,8.65
2023-03-10T18:58:18.835Z,8.95
2023-03-10T18:59:20.722Z,8.77
2023-03-10T19:00:23.275Z,8.23
2023-03-10T19:01:26.923Z,8.57
2023-03-10T19:02:29.181Z,8.77
2023-03-10T19:03:31.534Z,8.45
2023-03-10T19:04:33.403Z,7.90
2023-03-10T19:05:35.307Z,8.43
2023-03-10T19:06:37.232Z,7.93
2023-03-10T19:07:39.389Z,9.38
2023-03-10T19:08:42.737Z,8.60
2023-03-10T19:09:44.631Z,8.25
2023-03-10T19:10:54.597Z,8.25
2023-03-10T19:11:56.476Z,8.23
2023-03-10T19:12:58.584Z,8.07
2023-03-10T19:14:00.379Z,8.15
2023-03-10T19:15:09.102Z,7.93
2023-03-10T19:16:11.773Z,8.23
2023-03-10T19:17:13.838Z,7.97
2023-03-10T19:18:16.925Z,8.35
2023-03-10T19:19:19.192Z,8.15
2023-03-10T19:20:21.406Z,8.57
2023-03-10T19:21:24.320Z,7.72
2023-03-10T19:22:26.217Z,7.82
2023-03-10T19:23:29.274Z,7.93
2023-03-10T19:24:33.867Z,7.88
2023-03-10T19:25:35.906Z,8.80
2023-03-10T19:26:38.238Z,8.68
2023-03-10T19:27:40.839Z,7.85
2023-03-10T19:28:42.792Z,8.73
2023-03-10T19:29:44.890Z,8.05
2023-03-10T19:30:46.900Z,8.27
2023-03-10T19:31:48.993Z,8.00
2023-03-10T19:32:51.072Z,8.55
2023-03-10T19:33:53.083Z,8.05
2023-03-10T19:34:54.949Z,7.32
2023-03-10T19:36:04.301Z,8.07
2023-03-10T19:37:06.322Z,7.90
2023-03-10T19:38:08.408Z,7.82
2023-03-10T19:39:10.679Z,8.35
2023-03-10T19:40:17.064Z,8.35
2023-03-10T19:41:20.094Z,7.63
2023-03-10T19:42:23.129Z,7.93
2023-03-10T19:43:25.121Z,8.57
2023-03-10T19:44:27.620Z,7.57
2023-03-10T19:45:30.037Z,7.70
2023-03-10T19:46:32.026Z,8.05
2023-03-10T19:47:33.956Z,10.07
2023-03-10T19:48:36.139Z,7.95
2023-03-10T19:49:39.806Z,7.70
2023-03-10T19:50:41.673Z,7.32
2023-03-10T19:51:43.561Z,7.32
2023-03-10T19:52:47.479Z,7.35
2023-03-10T19:53:51.556Z,8.32
2023-03-10T19:54:54.011Z,8.02
2023-03-10T19:55:58.615Z,8.35
2023-03-10T19:57:00.633Z,7.85
2023-03-10T19:58:02.482Z,7.18
2023-03-10T19:59:07.407Z,7.93
2023-03-10T20:00:13.924Z,8.13
2023-03-10T20:01:19.928Z,7.78
2023-03-10T20:02:22.147Z,7.90
2023-03-10T20:03:27.522Z,7.60
2023-03-10T20:04:34.683Z,8.05
2023-03-10T20:05:37.657Z,7.85
2023-03-10T20:06:39.629Z,8.10
2023-03-10T20:07:43.012Z,7.68
2023-03-10T20:08:44.993Z,7.93
2023-03-10T20:09:48.212Z,8.52
2023-03-10T20:10:50.906Z,7.53
2023-03-10T20:11:55.292Z,8.45
2023-03-10T20:12:59.932Z,8.27
2023-03-10T20:14:01.882Z,7.72
2023-03-10T20:15:05.805Z,8.40
2023-03-10T20:16:09.091Z,8.23
2023-03-10T20:17:11.044Z,8.00
2023-03-10T20:18:12.956Z,8.45
2023-03-10T20:19:14.889Z,8.50
2023-03-10T20:20:20.192Z,8.82
2023-03-10T20:21:22.090Z,8.70
2023-03-10T20:22:24.497Z,8.68
2023-03-10T20:23:26.343Z,7.75
2023-03-10T20:24:29.082Z,8.55
2023-03-10T20:25:30.996Z,8.38
2023-03-10T20:26:33.106Z,8.00
2023-03-10T20:27:35.465Z,8.10
2023-03-10T20:28:39.801Z,8.75
2023-03-10T20:29:42.038Z,7.20
2023-03-10T20:30:45.014Z,7.68
2023-03-10T20:31:46.880Z,8.05
2023-03-10T20:32:49.234Z,7.63
2023-03-10T20:33:51.324Z,7.68
2023-03-10T20:34:53.383Z,8.55
2023-03-10T20:35:55.956Z,7.40
2023-03-10T20:36:58.150Z,8.80
2023-03-10T20:38:00.640Z,8.82
2023-03-10T20:39:02.594Z,11.02
2023-03-10T20:40:06.264Z,10.95
2023-03-10T20:41:08.213Z,12.10
2023-03-10T20:42:10.123Z,11.32
2023-03-10T20:43:12.272Z,11.52
2023-03-10T20:44:15.758Z,11.55
2023-03-10T20:45:18.255Z,11.35
2023-03-10T20:46:23.196Z,12.85
2023-03-10T20:47:25.188Z,10.77
2023-03-10T20:48:27.042Z,11.68
2023-03-10T20:49:29.530Z,11.88
2023-03-10T20:50:31.497Z,12.10
2023-03-10T20:51:33.439Z,12.07
2023-03-10T20:52:39.915Z,12.55
2023-03-10T20:53:41.883Z,12.75
2023-03-10T20:54:43.805Z,11.02
2023-03-10T20:55:45.724Z,10.57
2023-03-10T20:56:47.575Z,10.77
2023-03-10T20:57:51.338Z,11.70
2023-03-10T20:58:53.750Z,12.18
2023-03-10T20:59:56.071Z,11.73
2023-03-10T21:00:58.057Z,11.00
2023-03-10T21:02:00.044Z,10.45
2023-03-10T21:03:02.139Z,10.55
2023-03-10T21:04:04.382Z,11.48
2023-03-10T21:05:06.902Z,11.13
2023-03-10T21:06:08.785Z,11.43
2023-03-10T21:07:11.456Z,12.20
2023-03-10T21:08:13.895Z,12.30
2023-03-10T21:09:16.560Z,13.13
2023-03-10T21:10:19.128Z,12.30
2023-03-10T21:11:24.249Z,13.30
2023-03-10T21:12:26.343Z,12.57
2023-03-10T21:13:28.480Z,13.93
2023-03-10T21:14:30.505Z,13.30
2023-03-10T21:15:32.678Z,22.80
2023-03-10T21:16:39.458Z,13.50
2023-03-10T21:17:41.746Z,13.38
2023-03-10T21:18:43.761Z,12.77
2023-03-10T21:19:46.026Z,12.95
2023-03-10T21:20:47.964Z,12.60
2023-03-10T21:21:49.981Z,13.88
2023-03-10T21:22:52.318Z,13.27
2023-03-10T21:23:54.425Z,13.35
2023-03-10T21:24:56.610Z,13.05
2023-03-10T21:25:58.484Z,12.07
2023-03-10T21:27:01.226Z,11.63
2023-03-10T21:28:03.430Z,11.45
2023-03-10T21:29:06.246Z,10.23
2023-03-10T21:30:10.101Z,9.50
2023-03-10T21:31:13.279Z,9.15
2023-03-10T21:32:15.177Z,10.07
2023-03-10T21:33:17.133Z,9.25
2023-03-10T21:34:19.007Z,10.27
2023-03-10T21:35:20.942Z,10.48
2023-03-10T21:36:24.110Z,11.25
2023-03-10T21:37:26.108Z,11.35
2023-03-10T21:38:28.289Z,11.02
2023-03-10T21:39:30.285Z,11.57
2023-03-10T21:40:32.348Z,11.10
2023-03-10T21:41:34.743Z,11.60
2023-03-10T21:42:37.629Z,11.73
2023-03-10T21:43:39.478Z,12.75
2023-03-10T21:44:41.361Z,12.02
2023-03-10T21:45:43.324Z,13.35
2023-03-10T21:46:46.006Z,13.57
2023-03-10T21:47:48.264Z,13.52
2023-03-10T21:48:52.409Z,13.20
2023-03-10T21:49:54.313Z,13.50
2023-03-10T21:50:56.303Z,13.68
2023-03-10T21:51:58.831Z,13.15
2023-03-10T21:53:00.997Z,13.60
2023-03-10T21:54:05.109Z,13.85
2023-03-10T21:55:08.781Z,18.20
2023-03-10T21:56:11.703Z,17.63
2023-03-10T21:57:13.754Z,15.05
2023-03-10T21:58:15.667Z,14.02
2023-03-10T21:59:17.678Z,14.88
2023-03-10T22:00:23.219Z,14.55
2023-03-10T22:01:26.985Z,14.13
2023-03-10T22:02:30.910Z,14.07
2023-03-10T22:03:34.574Z,13.10
2023-03-10T22:04:36.629Z,14.10
2023-03-10T22:05:38.507Z,13.93
2023-03-10T22:06:40.738Z,13.65
2023-03-10T22:07:42.711Z,14.60
2023-03-10T22:08:44.644Z,13.75
2023-03-10T22:09:46.984Z,13.40
2023-03-10T22:10:48.926Z,14.13
2023-03-10T22:11:50.937Z,13.52
2023-03-10T22:12:52.941Z,13.65
2023-03-10T22:13:57.744Z,14.50
2023-03-10T22:14:59.786Z,13.93